Current Conditions
Partly Cloudy
Conditions



Pressure
1019.62 (kPa) - 30.11 (inHG)
Visibility

32.2 (km) - 20.0 (miles)
   Temperature
12  °C
54°F
10  °C
Dewpoint
88  %
 Humidity
   Wind Speed
0  km/h
0  kts
0  mph
0  m/s
   Wind Direction
Calm
Due North
   Airport Data
CYQQ
Location Comox Valley Airport / CFB Comox 52 km (32mi)
Metar :CYQQ 291300Z 00000KT 20SM FEW030 BKN090 BKN110 12/10 A3011 RMK SC1AC4AC1 SLP196
Thu 29th September 13:00 pm
   Raw Metar Info
Raw METAR is the most common format in the world for the transmission of observational weather data. It is highly standardized through the International Civil Aviation Organization (ICAO), which allows it to be understood throughout most of the world.
   API Info
Data Provided by
https://www.checkwx.com/weather/
   © Info
CSS/SVG/PHP scripts were developed by weather34.com for use in the weather34 template © 2015-2022

Guide Info provided by Metar-Wikipedia